Bushy Park, Australia
Current Conditions -  °F | °C
As of 1:00 PM on Monday 26 Jan 2015 (Local Time) from YMHB Reporting Station
Clear Clear  
Wind Chill: 18°   Ceiling: Unl
Heat Index: 18°   Visibility: 6mi
Dew Point:   Wind: 16mph
Humidity: 34%   Direction: 300°WNW
Pressure: 29.91"   Gusts: NA
Location:  42.7°S, 146.88°E
Report Text: YMHB 260200Z 30014KT CAVOK 18/02 Q1013
Loading
Personal Weather Stations






























Interactive Weather Map New forecast layout! Learn more

10-Day Weather Forecast

Advertisements
Track Severe Weather on mobile